sensor_id;sensor_type;location;lat;lon;timestamp;P1;durP1;ratioP1;P2;durP2;ratioP2
10347;SDS011;5220;43.192;23.284;2022-10-20T00:01:25;15.70;;;13.48;;
10347;SDS011;5220;43.192;23.284;2022-10-20T00:03:53;14.75;;;13.27;;
10347;SDS011;5220;43.192;23.284;2022-10-20T00:06:21;14.25;;;12.85;;
10347;SDS011;5220;43.192;23.284;2022-10-20T00:08:50;15.45;;;13.10;;
10347;SDS011;5220;43.192;23.284;2022-10-20T00:11:18;15.60;;;13.30;;
10347;SDS011;5220;43.192;23.284;2022-10-20T00:13:49;16.83;;;13.70;;
10347;SDS011;5220;43.192;23.284;2022-10-20T00:16:18;14.18;;;12.68;;
10347;SDS011;5220;43.192;23.284;2022-10-20T00:18:45;15.18;;;12.20;;
10347;SDS011;5220;43.192;23.284;2022-10-20T00:21:13;14.52;;;12.32;;
10347;SDS011;5220;43.192;23.284;2022-10-20T00:23:42;17.08;;;12.10;;
10347;SDS011;5220;43.192;23.284;2022-10-20T00:26:10;13.98;;;12.65;;
10347;SDS011;5220;43.192;23.284;2022-10-20T00:28:38;16.80;;;12.30;;
10347;SDS011;5220;43.192;23.284;2022-10-20T00:33:53;16.38;;;11.82;;
10347;SDS011;5220;43.192;23.284;2022-10-20T00:36:20;13.85;;;11.75;;
10347;SDS011;5220;43.192;23.284;2022-10-20T00:38:48;13.02;;;11.73;;
10347;SDS011;5220;43.192;23.284;2022-10-20T00:41:17;13.73;;;11.77;;
10347;SDS011;5220;43.192;23.284;2022-10-20T00:46:55;13.02;;;11.32;;
10347;SDS011;5220;43.192;23.284;2022-10-20T00:49:23;11.38;;;10.27;;
10347;SDS011;5220;43.192;23.284;2022-10-20T00:51:51;14.15;;;11.32;;
10347;SDS011;5220;43.192;23.284;2022-10-20T00:54:21;13.07;;;11.68;;
10347;SDS011;5220;43.192;23.284;2022-10-20T00:56:50;12.13;;;10.82;;
10347;SDS011;5220;43.192;23.284;2022-10-20T00:59:21;11.82;;;10.60;;
10347;SDS011;5220;43.192;23.284;2022-10-20T01:01:51;11.02;;;9.93;;
10347;SDS011;5220;43.192;23.284;2022-10-20T01:04:21;11.57;;;10.20;;
10347;SDS011;5220;43.192;23.284;2022-10-20T01:06:48;11.20;;;10.10;;
10347;SDS011;5220;43.192;23.284;2022-10-20T01:09:16;12.73;;;10.07;;
10347;SDS011;5220;43.192;23.284;2022-10-20T01:11:45;11.00;;;10.00;;
10347;SDS011;5220;43.192;23.284;2022-10-20T01:14:23;9.88;;;8.98;;
10347;SDS011;5220;43.192;23.284;2022-10-20T01:17:02;10.80;;;9.70;;
10347;SDS011;5220;43.192;23.284;2022-10-20T01:19:55;9.85;;;8.95;;
10347;SDS011;5220;43.192;23.284;2022-10-20T01:22:47;10.20;;;9.10;;
10347;SDS011;5220;43.192;23.284;2022-10-20T01:25:36;10.00;;;9.00;;
10347;SDS011;5220;43.192;23.284;2022-10-20T01:28:24;10.05;;;9.05;;
10347;SDS011;5220;43.192;23.284;2022-10-20T01:30:55;10.77;;;9.77;;
10347;SDS011;5220;43.192;23.284;2022-10-20T01:33:27;10.30;;;9.25;;
10347;SDS011;5220;43.192;23.284;2022-10-20T01:36:00;10.27;;;8.98;;
10347;SDS011;5220;43.192;23.284;2022-10-20T01:38:34;10.18;;;9.10;;
10347;SDS011;5220;43.192;23.284;2022-10-20T01:41:07;10.07;;;9.07;;
10347;SDS011;5220;43.192;23.284;2022-10-20T01:43:41;9.98;;;9.02;;
10347;SDS011;5220;43.192;23.284;2022-10-20T01:46:10;11.05;;;8.68;;
10347;SDS011;5220;43.192;23.284;2022-10-20T01:48:40;11.15;;;8.40;;
10347;SDS011;5220;43.192;23.284;2022-10-20T01:51:09;9.05;;;8.15;;
10347;SDS011;5220;43.192;23.284;2022-10-20T01:53:36;7.85;;;7.05;;
10347;SDS011;5220;43.192;23.284;2022-10-20T01:56:03;7.72;;;6.95;;
10347;SDS011;5220;43.192;23.284;2022-10-20T01:58:49;6.63;;;6.03;;
10347;SDS011;5220;43.192;23.284;2022-10-20T02:01:31;7.68;;;6.18;;
10347;SDS011;5220;43.192;23.284;2022-10-20T02:04:11;6.93;;;5.80;;
10347;SDS011;5220;43.192;23.284;2022-10-20T02:06:40;6.20;;;5.57;;
10347;SDS011;5220;43.192;23.284;2022-10-20T02:09:12;6.20;;;5.60;;
10347;SDS011;5220;43.192;23.284;2022-10-20T02:11:46;6.32;;;5.72;;
10347;SDS011;5220;43.192;23.284;2022-10-20T02:14:19;6.40;;;5.80;;
10347;SDS011;5220;43.192;23.284;2022-10-20T02:16:48;6.53;;;5.68;;
10347;SDS011;5220;43.192;23.284;2022-10-20T02:19:19;6.28;;;5.68;;
10347;SDS011;5220;43.192;23.284;2022-10-20T02:21:49;7.30;;;5.63;;
10347;SDS011;5220;43.192;23.284;2022-10-20T02:24:17;5.90;;;5.30;;
10347;SDS011;5220;43.192;23.284;2022-10-20T02:26:48;8.93;;;5.68;;
10347;SDS011;5220;43.192;23.284;2022-10-20T02:29:19;6.18;;;5.63;;
10347;SDS011;5220;43.192;23.284;2022-10-20T02:31:50;6.25;;;5.22;;
10347;SDS011;5220;43.192;23.284;2022-10-20T02:34:17;7.53;;;5.50;;
10347;SDS011;5220;43.192;23.284;2022-10-20T02:36:44;6.63;;;5.28;;
10347;SDS011;5220;43.192;23.284;2022-10-20T02:39:11;5.45;;;4.95;;
10347;SDS011;5220;43.192;23.284;2022-10-20T02:41:38;6.18;;;5.00;;
10347;SDS011;5220;43.192;23.284;2022-10-20T02:44:04;10.05;;;5.85;;
10347;SDS011;5220;43.192;23.284;2022-10-20T02:46:32;6.88;;;5.53;;
10347;SDS011;5220;43.192;23.284;2022-10-20T02:48:59;5.85;;;5.35;;
10347;SDS011;5220;43.192;23.284;2022-10-20T02:51:26;6.50;;;5.47;;
10347;SDS011;5220;43.192;23.284;2022-10-20T02:53:53;7.03;;;5.82;;
10347;SDS011;5220;43.192;23.284;2022-10-20T02:56:20;6.72;;;5.72;;
10347;SDS011;5220;43.192;23.284;2022-10-20T02:58:47;6.75;;;6.15;;
10347;SDS011;5220;43.192;23.284;2022-10-20T03:01:14;6.03;;;5.43;;
10347;SDS011;5220;43.192;23.284;2022-10-20T03:03:42;7.40;;;5.57;;
10347;SDS011;5220;43.192;23.284;2022-10-20T03:06:09;8.13;;;6.00;;
10347;SDS011;5220;43.192;23.284;2022-10-20T03:08:36;8.60;;;5.97;;
10347;SDS011;5220;43.192;23.284;2022-10-20T03:11:03;6.63;;;5.95;;
10347;SDS011;5220;43.192;23.284;2022-10-20T03:13:30;9.05;;;6.07;;
10347;SDS011;5220;43.192;23.284;2022-10-20T03:15:58;7.40;;;6.07;;
10347;SDS011;5220;43.192;23.284;2022-10-20T03:18:24;7.28;;;6.55;;
10347;SDS011;5220;43.192;23.284;2022-10-20T03:20:53;7.85;;;6.97;;
10347;SDS011;5220;43.192;23.284;2022-10-20T03:23:20;8.35;;;6.05;;
10347;SDS011;5220;43.192;23.284;2022-10-20T03:25:47;6.95;;;6.03;;
10347;SDS011;5220;43.192;23.284;2022-10-20T03:28:25;6.47;;;5.78;;
10347;SDS011;5220;43.192;23.284;2022-10-20T03:30:51;5.85;;;5.25;;
10347;SDS011;5220;43.192;23.284;2022-10-20T03:33:18;6.47;;;5.47;;
10347;SDS011;5220;43.192;23.284;2022-10-20T03:35:45;6.88;;;4.75;;
10347;SDS011;5220;43.192;23.284;2022-10-20T03:38:14;5.57;;;4.97;;
10347;SDS011;5220;43.192;23.284;2022-10-20T03:40:41;5.45;;;4.95;;
10347;SDS011;5220;43.192;23.284;2022-10-20T03:43:08;7.57;;;5.22;;
10347;SDS011;5220;43.192;23.284;2022-10-20T03:45:34;5.05;;;4.57;;
10347;SDS011;5220;43.192;23.284;2022-10-20T03:53:43;4.68;;;4.28;;
10347;SDS011;5220;43.192;23.284;2022-10-20T03:56:11;4.50;;;4.10;;
10347;SDS011;5220;43.192;23.284;2022-10-20T03:58:42;5.15;;;4.65;;
10347;SDS011;5220;43.192;23.284;2022-10-20T04:01:09;4.70;;;4.18;;
10347;SDS011;5220;43.192;23.284;2022-10-20T04:06:46;4.50;;;4.10;;
10347;SDS011;5220;43.192;23.284;2022-10-20T04:09:14;4.30;;;3.78;;
10347;SDS011;5220;43.192;23.284;2022-10-20T04:11:42;5.03;;;4.10;;
10347;SDS011;5220;43.192;23.284;2022-10-20T04:14:25;5.57;;;4.03;;
10347;SDS011;5220;43.192;23.284;2022-10-20T04:22:48;7.03;;;4.18;;
10347;SDS011;5220;43.192;23.284;2022-10-20T04:28:25;4.10;;;3.70;;
10347;SDS011;5220;43.192;23.284;2022-10-20T04:31:05;4.50;;;4.07;;
10347;SDS011;5220;43.192;23.284;2022-10-20T04:33:33;6.18;;;3.80;;
10347;SDS011;5220;43.192;23.284;2022-10-20T04:36:00;3.85;;;3.55;;
10347;SDS011;5220;43.192;23.284;2022-10-20T04:38:29;3.70;;;3.40;;
10347;SDS011;5220;43.192;23.284;2022-10-20T04:40:57;4.50;;;4.10;;
10347;SDS011;5220;43.192;23.284;2022-10-20T04:43:27;4.63;;;3.88;;
10347;SDS011;5220;43.192;23.284;2022-10-20T04:45:57;4.05;;;3.63;;
10347;SDS011;5220;43.192;23.284;2022-10-20T04:48:25;4.20;;;3.80;;
10347;SDS011;5220;43.192;23.284;2022-10-20T04:53:50;6.25;;;4.00;;
10347;SDS011;5220;43.192;23.284;2022-10-20T04:56:18;4.15;;;3.63;;
10347;SDS011;5220;43.192;23.284;2022-10-20T04:58:47;3.72;;;3.40;;
10347;SDS011;5220;43.192;23.284;2022-10-20T05:04:31;4.90;;;4.15;;
10347;SDS011;5220;43.192;23.284;2022-10-20T05:06:58;4.93;;;4.43;;
10347;SDS011;5220;43.192;23.284;2022-10-20T05:09:24;4.82;;;3.88;;
10347;SDS011;5220;43.192;23.284;2022-10-20T05:11:51;7.10;;;3.80;;
10347;SDS011;5220;43.192;23.284;2022-10-20T05:14:20;7.85;;;4.30;;
10347;SDS011;5220;43.192;23.284;2022-10-20T05:19:33;8.35;;;4.03;;
10347;SDS011;5220;43.192;23.284;2022-10-20T05:22:00;4.32;;;3.92;;
10347;SDS011;5220;43.192;23.284;2022-10-20T05:24:27;3.75;;;3.38;;
10347;SDS011;5220;43.192;23.284;2022-10-20T05:26:54;5.18;;;3.88;;
10347;SDS011;5220;43.192;23.284;2022-10-20T05:29:22;4.18;;;3.80;;
10347;SDS011;5220;43.192;23.284;2022-10-20T05:31:49;5.60;;;3.97;;
10347;SDS011;5220;43.192;23.284;2022-10-20T05:34:16;4.10;;;3.70;;
10347;SDS011;5220;43.192;23.284;2022-10-20T05:36:43;4.82;;;3.75;;
10347;SDS011;5220;43.192;23.284;2022-10-20T05:39:10;5.32;;;4.00;;
10347;SDS011;5220;43.192;23.284;2022-10-20T05:41:37;4.75;;;4.25;;
10347;SDS011;5220;43.192;23.284;2022-10-20T05:44:04;7.35;;;4.78;;
10347;SDS011;5220;43.192;23.284;2022-10-20T05:46:34;8.07;;;4.88;;
10347;SDS011;5220;43.192;23.284;2022-10-20T05:49:05;4.75;;;4.15;;
10347;SDS011;5220;43.192;23.284;2022-10-20T05:51:33;6.07;;;5.05;;
10347;SDS011;5220;43.192;23.284;2022-10-20T05:54:02;7.97;;;5.10;;
10347;SDS011;5220;43.192;23.284;2022-10-20T05:56:29;7.13;;;4.00;;
10347;SDS011;5220;43.192;23.284;2022-10-20T05:58:57;4.40;;;3.92;;
10347;SDS011;5220;43.192;23.284;2022-10-20T06:01:25;4.80;;;3.88;;
10347;SDS011;5220;43.192;23.284;2022-10-20T06:04:05;5.43;;;4.28;;
10347;SDS011;5220;43.192;23.284;2022-10-20T06:06:33;7.72;;;4.30;;
10347;SDS011;5220;43.192;23.284;2022-10-20T06:09:02;4.57;;;3.97;;
10347;SDS011;5220;43.192;23.284;2022-10-20T06:11:30;5.05;;;4.00;;
10347;SDS011;5220;43.192;23.284;2022-10-20T06:13:57;9.52;;;6.45;;
10347;SDS011;5220;43.192;23.284;2022-10-20T06:16:24;7.07;;;5.50;;
10347;SDS011;5220;43.192;23.284;2022-10-20T06:18:53;8.98;;;6.25;;
10347;SDS011;5220;43.192;23.284;2022-10-20T06:21:24;5.38;;;4.13;;
10347;SDS011;5220;43.192;23.284;2022-10-20T06:23:52;5.15;;;4.65;;
10347;SDS011;5220;43.192;23.284;2022-10-20T06:26:20;8.20;;;4.75;;
10347;SDS011;5220;43.192;23.284;2022-10-20T06:31:25;8.57;;;4.05;;
10347;SDS011;5220;43.192;23.284;2022-10-20T06:33:54;4.03;;;3.63;;
10347;SDS011;5220;43.192;23.284;2022-10-20T06:36:21;4.35;;;3.95;;
10347;SDS011;5220;43.192;23.284;2022-10-20T06:38:52;9.90;;;4.60;;
10347;SDS011;5220;43.192;23.284;2022-10-20T06:41:19;10.05;;;5.25;;
10347;SDS011;5220;43.192;23.284;2022-10-20T06:43:46;25.23;;;8.48;;
10347;SDS011;5220;43.192;23.284;2022-10-20T06:46:14;25.85;;;9.32;;
10347;SDS011;5220;43.192;23.284;2022-10-20T06:48:42;19.08;;;8.60;;
10347;SDS011;5220;43.192;23.284;2022-10-20T06:51:10;25.40;;;10.02;;
10347;SDS011;5220;43.192;23.284;2022-10-20T06:53:39;17.80;;;7.75;;
10347;SDS011;5220;43.192;23.284;2022-10-20T06:56:09;12.35;;;5.63;;
10347;SDS011;5220;43.192;23.284;2022-10-20T06:58:39;12.70;;;5.03;;
10347;SDS011;5220;43.192;23.284;2022-10-20T07:01:09;5.85;;;3.88;;
10347;SDS011;5220;43.192;23.284;2022-10-20T07:03:39;8.65;;;3.58;;
10347;SDS011;5220;43.192;23.284;2022-10-20T07:06:06;8.27;;;4.03;;
10347;SDS011;5220;43.192;23.284;2022-10-20T07:08:35;7.18;;;4.63;;
10347;SDS011;5220;43.192;23.284;2022-10-20T07:11:03;10.93;;;4.30;;
10347;SDS011;5220;43.192;23.284;2022-10-20T07:13:32;5.28;;;4.50;;
10347;SDS011;5220;43.192;23.284;2022-10-20T07:16:00;6.82;;;4.38;;
10347;SDS011;5220;43.192;23.284;2022-10-20T07:18:28;8.07;;;4.40;;
10347;SDS011;5220;43.192;23.284;2022-10-20T07:20:55;15.95;;;4.47;;
10347;SDS011;5220;43.192;23.284;2022-10-20T07:23:23;7.38;;;4.20;;
10347;SDS011;5220;43.192;23.284;2022-10-20T07:25:50;12.93;;;4.88;;
10347;SDS011;5220;43.192;23.284;2022-10-20T07:31:02;7.65;;;4.32;;
10347;SDS011;5220;43.192;23.284;2022-10-20T07:33:29;10.50;;;4.05;;
10347;SDS011;5220;43.192;23.284;2022-10-20T07:35:56;6.57;;;4.40;;
10347;SDS011;5220;43.192;23.284;2022-10-20T07:38:22;6.50;;;4.15;;
10347;SDS011;5220;43.192;23.284;2022-10-20T07:40:50;5.47;;;4.70;;
10347;SDS011;5220;43.192;23.284;2022-10-20T07:43:16;7.35;;;4.20;;
10347;SDS011;5220;43.192;23.284;2022-10-20T07:45:43;7.50;;;4.57;;
10347;SDS011;5220;43.192;23.284;2022-10-20T07:51:33;6.07;;;3.75;;
10347;SDS011;5220;43.192;23.284;2022-10-20T07:54:00;8.20;;;4.80;;
10347;SDS011;5220;43.192;23.284;2022-10-20T07:59:51;13.27;;;4.72;;
10347;SDS011;5220;43.192;23.284;2022-10-20T08:02:18;8.45;;;4.93;;
10347;SDS011;5220;43.192;23.284;2022-10-20T08:04:44;13.32;;;5.13;;
10347;SDS011;5220;43.192;23.284;2022-10-20T08:07:13;59.97;;;7.85;;
10347;SDS011;5220;43.192;23.284;2022-10-20T08:09:39;18.80;;;6.78;;
10347;SDS011;5220;43.192;23.284;2022-10-20T08:12:07;7.95;;;5.75;;
10347;SDS011;5220;43.192;23.284;2022-10-20T08:14:34;33.55;;;6.60;;
10347;SDS011;5220;43.192;23.284;2022-10-20T08:17:02;7.40;;;4.55;;
10347;SDS011;5220;43.192;23.284;2022-10-20T08:19:29;7.35;;;3.90;;
10347;SDS011;5220;43.192;23.284;2022-10-20T08:21:57;20.15;;;5.28;;
10347;SDS011;5220;43.192;23.284;2022-10-20T08:24:25;3.92;;;3.58;;
10347;SDS011;5220;43.192;23.284;2022-10-20T08:26:51;7.82;;;4.00;;
10347;SDS011;5220;43.192;23.284;2022-10-20T08:29:18;11.15;;;4.30;;
10347;SDS011;5220;43.192;23.284;2022-10-20T08:31:45;19.95;;;4.22;;
10347;SDS011;5220;43.192;23.284;2022-10-20T08:34:12;10.60;;;3.60;;
10347;SDS011;5220;43.192;23.284;2022-10-20T08:36:38;3.65;;;3.10;;
10347;SDS011;5220;43.192;23.284;2022-10-20T08:39:05;5.50;;;3.72;;
10347;SDS011;5220;43.192;23.284;2022-10-20T08:41:35;4.00;;;3.60;;
10347;SDS011;5220;43.192;23.284;2022-10-20T08:44:03;3.55;;;3.25;;
10347;SDS011;5220;43.192;23.284;2022-10-20T08:46:33;10.95;;;4.38;;
10347;SDS011;5220;43.192;23.284;2022-10-20T08:49:02;4.38;;;3.00;;
10347;SDS011;5220;43.192;23.284;2022-10-20T08:51:31;3.90;;;2.80;;
10347;SDS011;5220;43.192;23.284;2022-10-20T08:54:01;3.95;;;3.08;;
10347;SDS011;5220;43.192;23.284;2022-10-20T08:56:29;3.42;;;3.13;;
10347;SDS011;5220;43.192;23.284;2022-10-20T08:59:00;4.13;;;2.92;;
10347;SDS011;5220;43.192;23.284;2022-10-20T09:01:27;26.17;;;5.00;;
10347;SDS011;5220;43.192;23.284;2022-10-20T09:10:25;5.30;;;2.92;;
10347;SDS011;5220;43.192;23.284;2022-10-20T09:12:55;4.05;;;3.40;;
10347;SDS011;5220;43.192;23.284;2022-10-20T09:15:23;3.25;;;2.90;;
10347;SDS011;5220;43.192;23.284;2022-10-20T09:21:14;3.13;;;2.90;;
10347;SDS011;5220;43.192;23.284;2022-10-20T09:23:44;4.80;;;4.05;;
10347;SDS011;5220;43.192;23.284;2022-10-20T09:26:15;9.82;;;6.57;;
10347;SDS011;5220;43.192;23.284;2022-10-20T09:28:43;3.42;;;3.13;;
10347;SDS011;5220;43.192;23.284;2022-10-20T09:31:20;3.22;;;3.00;;
10347;SDS011;5220;43.192;23.284;2022-10-20T09:33:48;2.78;;;2.58;;
10347;SDS011;5220;43.192;23.284;2022-10-20T09:36:15;4.00;;;2.70;;
10347;SDS011;5220;43.192;23.284;2022-10-20T09:38:45;2.95;;;2.60;;
10347;SDS011;5220;43.192;23.284;2022-10-20T09:41:15;6.40;;;2.83;;
10347;SDS011;5220;43.192;23.284;2022-10-20T09:43:46;3.35;;;2.65;;
10347;SDS011;5220;43.192;23.284;2022-10-20T09:46:20;3.45;;;2.58;;
10347;SDS011;5220;43.192;23.284;2022-10-20T09:48:50;3.00;;;2.70;;
10347;SDS011;5220;43.192;23.284;2022-10-20T09:51:19;2.75;;;2.55;;
10347;SDS011;5220;43.192;23.284;2022-10-20T09:53:49;3.60;;;3.10;;
10347;SDS011;5220;43.192;23.284;2022-10-20T09:56:22;2.42;;;2.30;;
10347;SDS011;5220;43.192;23.284;2022-10-20T09:58:50;3.50;;;3.03;;
10347;SDS011;5220;43.192;23.284;2022-10-20T10:01:18;2.80;;;2.50;;
10347;SDS011;5220;43.192;23.284;2022-10-20T10:03:54;3.80;;;2.55;;
10347;SDS011;5220;43.192;23.284;2022-10-20T10:09:28;2.88;;;2.67;;
10347;SDS011;5220;43.192;23.284;2022-10-20T10:11:59;3.35;;;2.50;;
10347;SDS011;5220;43.192;23.284;2022-10-20T10:14:29;3.03;;;2.55;;
10347;SDS011;5220;43.192;23.284;2022-10-20T10:16:58;3.13;;;2.60;;
10347;SDS011;5220;43.192;23.284;2022-10-20T10:19:28;2.90;;;2.63;;
10347;SDS011;5220;43.192;23.284;2022-10-20T10:21:57;2.60;;;2.40;;
10347;SDS011;5220;43.192;23.284;2022-10-20T10:24:31;2.75;;;2.55;;
10347;SDS011;5220;43.192;23.284;2022-10-20T10:27:04;3.40;;;3.10;;
10347;SDS011;5220;43.192;23.284;2022-10-20T10:29:37;2.85;;;2.40;;
10347;SDS011;5220;43.192;23.284;2022-10-20T10:32:13;2.78;;;2.58;;
10347;SDS011;5220;43.192;23.284;2022-10-20T10:40:48;2.85;;;2.28;;
10347;SDS011;5220;43.192;23.284;2022-10-20T10:43:26;2.92;;;2.40;;
10347;SDS011;5220;43.192;23.284;2022-10-20T10:46:04;2.88;;;2.58;;
10347;SDS011;5220;43.192;23.284;2022-10-20T10:51:41;3.17;;;2.53;;
10347;SDS011;5220;43.192;23.284;2022-10-20T10:54:22;3.05;;;2.75;;
10347;SDS011;5220;43.192;23.284;2022-10-20T11:00:21;2.55;;;2.35;;
10347;SDS011;5220;43.192;23.284;2022-10-20T11:03:03;4.55;;;4.07;;
10347;SDS011;5220;43.192;23.284;2022-10-20T11:05:50;4.28;;;2.60;;
10347;SDS011;5220;43.192;23.284;2022-10-20T11:08:29;4.35;;;2.78;;
10347;SDS011;5220;43.192;23.284;2022-10-20T11:14:30;6.07;;;2.72;;
10347;SDS011;5220;43.192;23.284;2022-10-20T11:17:14;3.10;;;2.80;;
10347;SDS011;5220;43.192;23.284;2022-10-20T11:19:53;2.50;;;2.30;;
10347;SDS011;5220;43.192;23.284;2022-10-20T11:22:32;2.17;;;2.08;;
10347;SDS011;5220;43.192;23.284;2022-10-20T11:25:06;4.30;;;2.80;;
10347;SDS011;5220;43.192;23.284;2022-10-20T11:34:09;2.58;;;2.35;;
10347;SDS011;5220;43.192;23.284;2022-10-20T11:46:02;2.35;;;2.17;;
10347;SDS011;5220;43.192;23.284;2022-10-20T11:48:34;5.63;;;1.98;;
10347;SDS011;5220;43.192;23.284;2022-10-20T11:51:14;2.97;;;2.40;;
10347;SDS011;5220;43.192;23.284;2022-10-20T11:54:04;3.38;;;2.25;;
10347;SDS011;5220;43.192;23.284;2022-10-20T12:00:50;2.22;;;2.03;;
10347;SDS011;5220;43.192;23.284;2022-10-20T12:09:55;2.88;;;2.53;;
10347;SDS011;5220;43.192;23.284;2022-10-20T12:12:31;5.68;;;3.10;;
10347;SDS011;5220;43.192;23.284;2022-10-20T12:15:03;2.40;;;2.20;;
10347;SDS011;5220;43.192;23.284;2022-10-20T12:17:45;4.22;;;2.55;;
10347;SDS011;5220;43.192;23.284;2022-10-20T12:36:41;2.38;;;2.08;;
10347;SDS011;5220;43.192;23.284;2022-10-20T12:39:13;5.25;;;2.70;;
10347;SDS011;5220;43.192;23.284;2022-10-20T12:41:45;2.90;;;2.50;;
10347;SDS011;5220;43.192;23.284;2022-10-20T12:44:21;2.65;;;2.45;;
10347;SDS011;5220;43.192;23.284;2022-10-20T12:46:54;2.05;;;1.95;;
10347;SDS011;5220;43.192;23.284;2022-10-20T12:49:24;2.58;;;2.30;;
10347;SDS011;5220;43.192;23.284;2022-10-20T12:51:56;3.80;;;2.15;;
10347;SDS011;5220;43.192;23.284;2022-10-20T12:54:25;2.80;;;2.40;;
10347;SDS011;5220;43.192;23.284;2022-10-20T13:03:42;2.50;;;2.30;;
10347;SDS011;5220;43.192;23.284;2022-10-20T13:09:22;2.42;;;2.13;;
10347;SDS011;5220;43.192;23.284;2022-10-20T13:11:59;2.70;;;2.50;;
10347;SDS011;5220;43.192;23.284;2022-10-20T13:14:39;2.45;;;2.25;;
10347;SDS011;5220;43.192;23.284;2022-10-20T13:20:38;7.28;;;4.65;;
10347;SDS011;5220;43.192;23.284;2022-10-20T13:23:10;2.95;;;2.60;;
10347;SDS011;5220;43.192;23.284;2022-10-20T13:25:39;2.58;;;2.38;;
10347;SDS011;5220;43.192;23.284;2022-10-20T13:31:32;3.28;;;2.90;;
10347;SDS011;5220;43.192;23.284;2022-10-20T13:34:06;11.45;;;5.75;;
10347;SDS011;5220;43.192;23.284;2022-10-20T13:36:47;3.33;;;2.25;;
10347;SDS011;5220;43.192;23.284;2022-10-20T13:39:26;4.22;;;2.75;;
10347;SDS011;5220;43.192;23.284;2022-10-20T13:45:17;4.80;;;2.90;;
10347;SDS011;5220;43.192;23.284;2022-10-20T13:51:14;7.10;;;3.83;;
10347;SDS011;5220;43.192;23.284;2022-10-20T13:53:46;8.85;;;4.03;;
10347;SDS011;5220;43.192;23.284;2022-10-20T13:56:18;5.85;;;3.85;;
10347;SDS011;5220;43.192;23.284;2022-10-20T13:58:59;7.72;;;4.15;;
10347;SDS011;5220;43.192;23.284;2022-10-20T14:01:27;3.85;;;3.28;;
10347;SDS011;5220;43.192;23.284;2022-10-20T14:03:55;4.35;;;3.47;;
10347;SDS011;5220;43.192;23.284;2022-10-20T14:12:43;3.00;;;2.80;;
10347;SDS011;5220;43.192;23.284;2022-10-20T14:15:10;4.72;;;3.03;;
10347;SDS011;5220;43.192;23.284;2022-10-20T14:17:41;4.03;;;3.00;;
10347;SDS011;5220;43.192;23.284;2022-10-20T14:20:20;3.60;;;3.30;;
10347;SDS011;5220;43.192;23.284;2022-10-20T14:22:48;3.65;;;2.90;;
10347;SDS011;5220;43.192;23.284;2022-10-20T14:25:18;4.65;;;3.35;;
10347;SDS011;5220;43.192;23.284;2022-10-20T14:28:02;4.63;;;3.00;;
10347;SDS011;5220;43.192;23.284;2022-10-20T14:30:30;4.18;;;3.78;;
10347;SDS011;5220;43.192;23.284;2022-10-20T14:33:05;8.35;;;3.70;;
10347;SDS011;5220;43.192;23.284;2022-10-20T14:35:37;10.40;;;4.88;;
10347;SDS011;5220;43.192;23.284;2022-10-20T14:41:25;6.05;;;3.50;;
10347;SDS011;5220;43.192;23.284;2022-10-20T14:43:56;7.05;;;4.20;;
10347;SDS011;5220;43.192;23.284;2022-10-20T14:49:13;4.88;;;4.22;;
10347;SDS011;5220;43.192;23.284;2022-10-20T14:51:44;6.20;;;4.60;;
10347;SDS011;5220;43.192;23.284;2022-10-20T14:54:24;5.60;;;4.18;;
10347;SDS011;5220;43.192;23.284;2022-10-20T15:02:50;13.90;;;9.45;;
10347;SDS011;5220;43.192;23.284;2022-10-20T15:05:22;24.77;;;15.50;;
10347;SDS011;5220;43.192;23.284;2022-10-20T15:08:10;19.48;;;12.60;;
10347;SDS011;5220;43.192;23.284;2022-10-20T15:10:42;14.73;;;10.07;;
10347;SDS011;5220;43.192;23.284;2022-10-20T15:13:17;9.65;;;7.05;;
10347;SDS011;5220;43.192;23.284;2022-10-20T15:15:51;9.45;;;4.40;;
10347;SDS011;5220;43.192;23.284;2022-10-20T15:18:24;9.00;;;6.95;;
10347;SDS011;5220;43.192;23.284;2022-10-20T15:20:52;6.95;;;4.53;;
10347;SDS011;5220;43.192;23.284;2022-10-20T15:23:20;7.90;;;4.53;;
10347;SDS011;5220;43.192;23.284;2022-10-20T15:25:49;5.55;;;3.92;;
10347;SDS011;5220;43.192;23.284;2022-10-20T15:34:45;5.70;;;3.75;;
10347;SDS011;5220;43.192;23.284;2022-10-20T15:40:11;6.95;;;3.97;;
10347;SDS011;5220;43.192;23.284;2022-10-20T15:42:38;6.90;;;4.18;;
10347;SDS011;5220;43.192;23.284;2022-10-20T15:45:09;5.43;;;4.03;;
10347;SDS011;5220;43.192;23.284;2022-10-20T15:51:13;5.05;;;3.42;;
10347;SDS011;5220;43.192;23.284;2022-10-20T15:53:42;6.05;;;3.50;;
10347;SDS011;5220;43.192;23.284;2022-10-20T15:56:10;5.93;;;3.50;;
10347;SDS011;5220;43.192;23.284;2022-10-20T15:58:36;3.92;;;3.50;;
10347;SDS011;5220;43.192;23.284;2022-10-20T16:01:03;3.47;;;3.17;;
10347;SDS011;5220;43.192;23.284;2022-10-20T16:03:30;5.57;;;3.30;;
10347;SDS011;5220;43.192;23.284;2022-10-20T16:05:57;3.60;;;3.28;;
10347;SDS011;5220;43.192;23.284;2022-10-20T16:08:25;5.90;;;3.75;;
10347;SDS011;5220;43.192;23.284;2022-10-20T16:10:52;4.80;;;3.13;;
10347;SDS011;5220;43.192;23.284;2022-10-20T16:13:20;4.13;;;3.25;;
10347;SDS011;5220;43.192;23.284;2022-10-20T16:15:47;6.13;;;4.03;;
10347;SDS011;5220;43.192;23.284;2022-10-20T16:18:14;3.97;;;3.58;;
10347;SDS011;5220;43.192;23.284;2022-10-20T16:20:40;4.78;;;3.97;;
10347;SDS011;5220;43.192;23.284;2022-10-20T16:23:07;4.72;;;4.32;;
10347;SDS011;5220;43.192;23.284;2022-10-20T16:25:37;6.70;;;4.70;;
10347;SDS011;5220;43.192;23.284;2022-10-20T16:28:15;9.82;;;5.00;;
10347;SDS011;5220;43.192;23.284;2022-10-20T16:33:31;5.35;;;4.85;;
10347;SDS011;5220;43.192;23.284;2022-10-20T16:35:59;6.65;;;5.03;;
10347;SDS011;5220;43.192;23.284;2022-10-20T16:41:53;7.10;;;4.25;;
10347;SDS011;5220;43.192;23.284;2022-10-20T16:44:20;4.70;;;4.30;;
10347;SDS011;5220;43.192;23.284;2022-10-20T16:46:48;6.13;;;5.40;;
10347;SDS011;5220;43.192;23.284;2022-10-20T16:52:19;7.63;;;4.45;;
10347;SDS011;5220;43.192;23.284;2022-10-20T16:58:17;5.55;;;4.18;;
10347;SDS011;5220;43.192;23.284;2022-10-20T17:00:43;5.05;;;4.25;;
10347;SDS011;5220;43.192;23.284;2022-10-20T17:06:32;4.38;;;3.78;;
10347;SDS011;5220;43.192;23.284;2022-10-20T17:08:58;4.60;;;3.53;;
10347;SDS011;5220;43.192;23.284;2022-10-20T17:11:26;4.68;;;3.67;;
10347;SDS011;5220;43.192;23.284;2022-10-20T17:13:56;4.22;;;3.83;;
10347;SDS011;5220;43.192;23.284;2022-10-20T17:22:11;4.13;;;3.80;;
10347;SDS011;5220;43.192;23.284;2022-10-20T17:24:40;13.80;;;4.60;;
10347;SDS011;5220;43.192;23.284;2022-10-20T17:30:01;7.10;;;4.68;;
10347;SDS011;5220;43.192;23.284;2022-10-20T17:32:28;4.10;;;3.70;;
10347;SDS011;5220;43.192;23.284;2022-10-20T17:34:54;8.18;;;3.85;;
10347;SDS011;5220;43.192;23.284;2022-10-20T17:40:05;4.97;;;3.90;;
10347;SDS011;5220;43.192;23.284;2022-10-20T17:45:56;8.13;;;6.00;;
10347;SDS011;5220;43.192;23.284;2022-10-20T17:51:21;5.32;;;4.32;;
10347;SDS011;5220;43.192;23.284;2022-10-20T17:53:50;3.90;;;3.47;;
10347;SDS011;5220;43.192;23.284;2022-10-20T17:56:18;5.32;;;4.72;;
10347;SDS011;5220;43.192;23.284;2022-10-20T17:58:47;6.25;;;4.20;;
10347;SDS011;5220;43.192;23.284;2022-10-20T18:01:17;8.65;;;5.38;;
10347;SDS011;5220;43.192;23.284;2022-10-20T18:03:46;6.88;;;6.18;;
10347;SDS011;5220;43.192;23.284;2022-10-20T18:06:15;4.93;;;4.53;;
10347;SDS011;5220;43.192;23.284;2022-10-20T18:11:52;4.55;;;3.92;;
10347;SDS011;5220;43.192;23.284;2022-10-20T18:14:22;6.57;;;4.65;;
10347;SDS011;5220;43.192;23.284;2022-10-20T18:16:50;5.68;;;4.63;;
10347;SDS011;5220;43.192;23.284;2022-10-20T18:19:17;4.72;;;4.25;;
10347;SDS011;5220;43.192;23.284;2022-10-20T18:21:45;5.13;;;4.63;;
10347;SDS011;5220;43.192;23.284;2022-10-20T18:24:19;4.60;;;4.20;;
10347;SDS011;5220;43.192;23.284;2022-10-20T18:26:46;7.60;;;4.55;;
10347;SDS011;5220;43.192;23.284;2022-10-20T18:32:13;6.30;;;4.90;;